sensor_id;sensor_type;location;lat;lon;timestamp;P1;durP1;ratioP1;P2;durP2;ratioP2
18887;SDS011;9576;47.792;9.628;2023-06-10T00:02:54;9.90;;;4.93;;
18887;SDS011;9576;47.792;9.628;2023-06-10T00:05:56;7.95;;;5.10;;
18887;SDS011;9576;47.792;9.628;2023-06-10T00:08:59;10.60;;;5.53;;
18887;SDS011;9576;47.792;9.628;2023-06-10T00:12:02;8.98;;;5.88;;
18887;SDS011;9576;47.792;9.628;2023-06-10T00:15:05;11.15;;;5.50;;
18887;SDS011;9576;47.792;9.628;2023-06-10T00:18:08;8.15;;;5.28;;
18887;SDS011;9576;47.792;9.628;2023-06-10T00:21:10;9.00;;;5.78;;
18887;SDS011;9576;47.792;9.628;2023-06-10T00:24:14;10.18;;;5.30;;
18887;SDS011;9576;47.792;9.628;2023-06-10T00:27:16;7.85;;;5.28;;
18887;SDS011;9576;47.792;9.628;2023-06-10T00:30:18;19.80;;;6.68;;
18887;SDS011;9576;47.792;9.628;2023-06-10T00:33:21;17.75;;;6.25;;
18887;SDS011;9576;47.792;9.628;2023-06-10T00:36:23;13.43;;;6.15;;
18887;SDS011;9576;47.792;9.628;2023-06-10T00:39:26;8.68;;;5.95;;
18887;SDS011;9576;47.792;9.628;2023-06-10T00:42:28;14.73;;;6.28;;
18887;SDS011;9576;47.792;9.628;2023-06-10T00:45:31;13.50;;;6.50;;
18887;SDS011;9576;47.792;9.628;2023-06-10T00:48:33;8.60;;;5.90;;
18887;SDS011;9576;47.792;9.628;2023-06-10T00:51:35;12.60;;;5.97;;
18887;SDS011;9576;47.792;9.628;2023-06-10T00:54:39;10.95;;;6.32;;
18887;SDS011;9576;47.792;9.628;2023-06-10T00:57:41;10.68;;;5.93;;
18887;SDS011;9576;47.792;9.628;2023-06-10T01:00:44;10.27;;;6.18;;
18887;SDS011;9576;47.792;9.628;2023-06-10T01:03:46;12.30;;;6.43;;
18887;SDS011;9576;47.792;9.628;2023-06-10T01:06:50;10.68;;;6.78;;
18887;SDS011;9576;47.792;9.628;2023-06-10T01:10:05;13.23;;;6.63;;
18887;SDS011;9576;47.792;9.628;2023-06-10T01:13:14;19.67;;;5.90;;
18887;SDS011;9576;47.792;9.628;2023-06-10T01:16:18;11.27;;;6.55;;
18887;SDS011;9576;47.792;9.628;2023-06-10T01:19:21;13.68;;;6.20;;
18887;SDS011;9576;47.792;9.628;2023-06-10T01:22:26;11.02;;;7.15;;
18887;SDS011;9576;47.792;9.628;2023-06-10T01:25:32;10.57;;;6.82;;
18887;SDS011;9576;47.792;9.628;2023-06-10T01:28:38;10.63;;;6.70;;
18887;SDS011;9576;47.792;9.628;2023-06-10T01:31:47;11.70;;;6.78;;
18887;SDS011;9576;47.792;9.628;2023-06-10T01:34:52;9.52;;;6.38;;
18887;SDS011;9576;47.792;9.628;2023-06-10T01:37:57;12.88;;;7.05;;
18887;SDS011;9576;47.792;9.628;2023-06-10T01:41:01;12.65;;;6.90;;
18887;SDS011;9576;47.792;9.628;2023-06-10T01:44:04;14.32;;;6.55;;
18887;SDS011;9576;47.792;9.628;2023-06-10T01:47:06;13.43;;;7.65;;
18887;SDS011;9576;47.792;9.628;2023-06-10T01:50:08;16.15;;;6.80;;
18887;SDS011;9576;47.792;9.628;2023-06-10T01:53:12;15.77;;;7.70;;
18887;SDS011;9576;47.792;9.628;2023-06-10T01:56:14;10.88;;;7.32;;
18887;SDS011;9576;47.792;9.628;2023-06-10T02:02:20;11.05;;;6.75;;
18887;SDS011;9576;47.792;9.628;2023-06-10T02:05:22;12.38;;;7.90;;
18887;SDS011;9576;47.792;9.628;2023-06-10T02:08:26;12.05;;;7.50;;
18887;SDS011;9576;47.792;9.628;2023-06-10T02:11:28;13.63;;;7.72;;
18887;SDS011;9576;47.792;9.628;2023-06-10T02:14:31;15.60;;;8.50;;
18887;SDS011;9576;47.792;9.628;2023-06-10T02:17:34;11.98;;;7.80;;
18887;SDS011;9576;47.792;9.628;2023-06-10T02:20:36;18.00;;;7.45;;
18887;SDS011;9576;47.792;9.628;2023-06-10T02:23:39;10.65;;;7.07;;
18887;SDS011;9576;47.792;9.628;2023-06-10T02:26:41;11.43;;;7.30;;
18887;SDS011;9576;47.792;9.628;2023-06-10T02:29:43;13.20;;;8.63;;
18887;SDS011;9576;47.792;9.628;2023-06-10T02:32:45;11.07;;;7.95;;
18887;SDS011;9576;47.792;9.628;2023-06-10T02:35:47;15.95;;;8.57;;
18887;SDS011;9576;47.792;9.628;2023-06-10T02:38:51;16.67;;;8.75;;
18887;SDS011;9576;47.792;9.628;2023-06-10T02:41:53;16.77;;;8.15;;
18887;SDS011;9576;47.792;9.628;2023-06-10T02:44:55;24.77;;;8.23;;
18887;SDS011;9576;47.792;9.628;2023-06-10T02:47:57;9.75;;;7.13;;
18887;SDS011;9576;47.792;9.628;2023-06-10T02:50:59;11.85;;;7.82;;
18887;SDS011;9576;47.792;9.628;2023-06-10T02:54:02;14.50;;;8.10;;
18887;SDS011;9576;47.792;9.628;2023-06-10T02:57:05;23.83;;;8.70;;
18887;SDS011;9576;47.792;9.628;2023-06-10T03:00:08;14.52;;;8.65;;
18887;SDS011;9576;47.792;9.628;2023-06-10T03:03:11;15.73;;;8.43;;
18887;SDS011;9576;47.792;9.628;2023-06-10T03:06:13;15.50;;;8.68;;
18887;SDS011;9576;47.792;9.628;2023-06-10T03:09:16;16.70;;;8.98;;
18887;SDS011;9576;47.792;9.628;2023-06-10T03:12:18;12.32;;;8.52;;
18887;SDS011;9576;47.792;9.628;2023-06-10T03:15:20;12.85;;;8.68;;
18887;SDS011;9576;47.792;9.628;2023-06-10T03:18:25;13.88;;;8.90;;
18887;SDS011;9576;47.792;9.628;2023-06-10T03:21:28;14.35;;;8.73;;
18887;SDS011;9576;47.792;9.628;2023-06-10T03:24:31;16.08;;;8.88;;
18887;SDS011;9576;47.792;9.628;2023-06-10T03:27:33;21.65;;;8.55;;
18887;SDS011;9576;47.792;9.628;2023-06-10T03:30:35;19.90;;;9.05;;
18887;SDS011;9576;47.792;9.628;2023-06-10T03:33:37;13.65;;;9.00;;
18887;SDS011;9576;47.792;9.628;2023-06-10T03:36:39;30.90;;;9.05;;
18887;SDS011;9576;47.792;9.628;2023-06-10T03:39:45;21.75;;;8.88;;
18887;SDS011;9576;47.792;9.628;2023-06-10T03:42:47;19.80;;;9.07;;
18887;SDS011;9576;47.792;9.628;2023-06-10T03:45:49;14.40;;;8.95;;
18887;SDS011;9576;47.792;9.628;2023-06-10T03:48:51;17.25;;;9.40;;
18887;SDS011;9576;47.792;9.628;2023-06-10T03:51:53;12.88;;;8.20;;
18887;SDS011;9576;47.792;9.628;2023-06-10T03:54:56;16.27;;;8.57;;
18887;SDS011;9576;47.792;9.628;2023-06-10T03:57:58;23.98;;;9.80;;
18887;SDS011;9576;47.792;9.628;2023-06-10T04:01:00;17.77;;;9.48;;
18887;SDS011;9576;47.792;9.628;2023-06-10T04:04:02;20.02;;;9.23;;
18887;SDS011;9576;47.792;9.628;2023-06-10T04:07:04;13.77;;;9.63;;
18887;SDS011;9576;47.792;9.628;2023-06-10T04:10:08;18.95;;;9.15;;
18887;SDS011;9576;47.792;9.628;2023-06-10T04:13:10;20.83;;;10.52;;
18887;SDS011;9576;47.792;9.628;2023-06-10T04:16:12;23.77;;;10.48;;
18887;SDS011;9576;47.792;9.628;2023-06-10T04:19:14;13.55;;;9.10;;
18887;SDS011;9576;47.792;9.628;2023-06-10T04:22:16;14.48;;;8.93;;
18887;SDS011;9576;47.792;9.628;2023-06-10T04:25:20;15.05;;;8.93;;
18887;SDS011;9576;47.792;9.628;2023-06-10T04:28:22;22.40;;;11.20;;
18887;SDS011;9576;47.792;9.628;2023-06-10T04:31:23;24.60;;;10.02;;
18887;SDS011;9576;47.792;9.628;2023-06-10T04:34:26;16.52;;;9.70;;
18887;SDS011;9576;47.792;9.628;2023-06-10T04:37:28;14.52;;;9.48;;
18887;SDS011;9576;47.792;9.628;2023-06-10T04:40:31;15.43;;;9.63;;
18887;SDS011;9576;47.792;9.628;2023-06-10T04:43:33;18.77;;;9.07;;
18887;SDS011;9576;47.792;9.628;2023-06-10T04:46:35;21.98;;;9.23;;
18887;SDS011;9576;47.792;9.628;2023-06-10T04:49:37;21.88;;;9.45;;
18887;SDS011;9576;47.792;9.628;2023-06-10T04:52:39;29.48;;;9.82;;
18887;SDS011;9576;47.792;9.628;2023-06-10T04:55:43;21.15;;;9.55;;
18887;SDS011;9576;47.792;9.628;2023-06-10T04:58:45;17.13;;;8.95;;
18887;SDS011;9576;47.792;9.628;2023-06-10T05:01:47;18.48;;;9.38;;
18887;SDS011;9576;47.792;9.628;2023-06-10T05:04:49;22.08;;;10.60;;
18887;SDS011;9576;47.792;9.628;2023-06-10T05:07:51;15.93;;;9.40;;
18887;SDS011;9576;47.792;9.628;2023-06-10T05:10:54;18.13;;;10.80;;
18887;SDS011;9576;47.792;9.628;2023-06-10T05:13:56;14.38;;;9.70;;
18887;SDS011;9576;47.792;9.628;2023-06-10T05:16:58;16.42;;;9.27;;
18887;SDS011;9576;47.792;9.628;2023-06-10T05:20:00;15.13;;;9.70;;
18887;SDS011;9576;47.792;9.628;2023-06-10T05:23:01;14.45;;;10.23;;
18887;SDS011;9576;47.792;9.628;2023-06-10T05:26:05;16.90;;;10.40;;
18887;SDS011;9576;47.792;9.628;2023-06-10T05:29:07;14.23;;;9.32;;
18887;SDS011;9576;47.792;9.628;2023-06-10T05:32:09;16.83;;;9.07;;
18887;SDS011;9576;47.792;9.628;2023-06-10T05:35:11;14.52;;;9.15;;
18887;SDS011;9576;47.792;9.628;2023-06-10T05:38:13;16.30;;;10.55;;
18887;SDS011;9576;47.792;9.628;2023-06-10T05:41:16;23.48;;;11.10;;
18887;SDS011;9576;47.792;9.628;2023-06-10T05:44:18;15.55;;;10.75;;
18887;SDS011;9576;47.792;9.628;2023-06-10T05:47:20;31.23;;;10.68;;
18887;SDS011;9576;47.792;9.628;2023-06-10T05:50:23;19.95;;;9.63;;
18887;SDS011;9576;47.792;9.628;2023-06-10T05:53:25;17.35;;;10.48;;
18887;SDS011;9576;47.792;9.628;2023-06-10T05:56:29;14.20;;;9.90;;
18887;SDS011;9576;47.792;9.628;2023-06-10T05:59:31;17.05;;;10.00;;
18887;SDS011;9576;47.792;9.628;2023-06-10T06:02:33;20.70;;;10.32;;
18887;SDS011;9576;47.792;9.628;2023-06-10T06:05:35;21.02;;;10.63;;
18887;SDS011;9576;47.792;9.628;2023-06-10T06:08:38;35.60;;;10.57;;
18887;SDS011;9576;47.792;9.628;2023-06-10T06:11:41;14.85;;;10.18;;
18887;SDS011;9576;47.792;9.628;2023-06-10T06:14:43;15.73;;;9.90;;
18887;SDS011;9576;47.792;9.628;2023-06-10T06:17:45;15.77;;;9.82;;
18887;SDS011;9576;47.792;9.628;2023-06-10T06:20:47;22.95;;;11.20;;
18887;SDS011;9576;47.792;9.628;2023-06-10T06:23:49;17.90;;;9.98;;
18887;SDS011;9576;47.792;9.628;2023-06-10T06:26:53;24.20;;;10.80;;
18887;SDS011;9576;47.792;9.628;2023-06-10T06:29:54;15.02;;;10.98;;
18887;SDS011;9576;47.792;9.628;2023-06-10T06:32:56;16.30;;;10.25;;
18887;SDS011;9576;47.792;9.628;2023-06-10T06:35:59;15.05;;;9.60;;
18887;SDS011;9576;47.792;9.628;2023-06-10T06:39:01;16.88;;;10.05;;
18887;SDS011;9576;47.792;9.628;2023-06-10T06:42:04;19.02;;;10.82;;
18887;SDS011;9576;47.792;9.628;2023-06-10T06:45:07;14.83;;;10.03;;
18887;SDS011;9576;47.792;9.628;2023-06-10T06:48:10;17.10;;;10.30;;
18887;SDS011;9576;47.792;9.628;2023-06-10T06:51:12;15.68;;;10.18;;
18887;SDS011;9576;47.792;9.628;2023-06-10T06:54:14;16.10;;;10.75;;
18887;SDS011;9576;47.792;9.628;2023-06-10T06:57:17;17.63;;;10.65;;
18887;SDS011;9576;47.792;9.628;2023-06-10T07:00:19;16.92;;;10.23;;
18887;SDS011;9576;47.792;9.628;2023-06-10T07:03:21;20.20;;;10.35;;
18887;SDS011;9576;47.792;9.628;2023-06-10T07:06:23;20.25;;;10.95;;
18887;SDS011;9576;47.792;9.628;2023-06-10T07:09:25;17.95;;;10.30;;
18887;SDS011;9576;47.792;9.628;2023-06-10T07:12:29;17.58;;;10.88;;
18887;SDS011;9576;47.792;9.628;2023-06-10T07:15:31;15.95;;;9.82;;
18887;SDS011;9576;47.792;9.628;2023-06-10T07:18:33;21.45;;;10.77;;
18887;SDS011;9576;47.792;9.628;2023-06-10T07:21:35;14.75;;;10.40;;
18887;SDS011;9576;47.792;9.628;2023-06-10T07:24:37;17.02;;;10.23;;
18887;SDS011;9576;47.792;9.628;2023-06-10T07:27:41;15.20;;;9.90;;
18887;SDS011;9576;47.792;9.628;2023-06-10T07:30:43;18.15;;;9.68;;
18887;SDS011;9576;47.792;9.628;2023-06-10T07:33:45;15.35;;;10.35;;
18887;SDS011;9576;47.792;9.628;2023-06-10T07:36:48;18.08;;;10.52;;
18887;SDS011;9576;47.792;9.628;2023-06-10T07:39:50;18.15;;;9.90;;
18887;SDS011;9576;47.792;9.628;2023-06-10T07:42:53;18.33;;;9.07;;
18887;SDS011;9576;47.792;9.628;2023-06-10T07:45:56;15.63;;;9.45;;
18887;SDS011;9576;47.792;9.628;2023-06-10T07:48:58;13.90;;;9.50;;
18887;SDS011;9576;47.792;9.628;2023-06-10T07:52:00;13.75;;;9.60;;
18887;SDS011;9576;47.792;9.628;2023-06-10T07:55:02;15.05;;;8.98;;
18887;SDS011;9576;47.792;9.628;2023-06-10T07:58:05;16.13;;;10.10;;
18887;SDS011;9576;47.792;9.628;2023-06-10T08:01:07;16.08;;;9.70;;
18887;SDS011;9576;47.792;9.628;2023-06-10T08:04:09;14.40;;;9.13;;
18887;SDS011;9576;47.792;9.628;2023-06-10T08:07:11;13.13;;;8.98;;
18887;SDS011;9576;47.792;9.628;2023-06-10T08:10:13;19.88;;;9.65;;
18887;SDS011;9576;47.792;9.628;2023-06-10T08:13:16;12.23;;;8.82;;
18887;SDS011;9576;47.792;9.628;2023-06-10T08:16:18;10.85;;;7.93;;
18887;SDS011;9576;47.792;9.628;2023-06-10T08:19:20;15.73;;;9.10;;
18887;SDS011;9576;47.792;9.628;2023-06-10T08:22:22;14.80;;;8.85;;
18887;SDS011;9576;47.792;9.628;2023-06-10T08:25:24;20.48;;;8.63;;
18887;SDS011;9576;47.792;9.628;2023-06-10T08:28:27;13.52;;;8.05;;
18887;SDS011;9576;47.792;9.628;2023-06-10T08:31:29;12.52;;;7.70;;
18887;SDS011;9576;47.792;9.628;2023-06-10T08:34:32;11.45;;;7.47;;
18887;SDS011;9576;47.792;9.628;2023-06-10T08:37:35;15.60;;;7.68;;
18887;SDS011;9576;47.792;9.628;2023-06-10T08:40:37;14.15;;;7.25;;
18887;SDS011;9576;47.792;9.628;2023-06-10T08:43:42;11.00;;;5.40;;
18887;SDS011;9576;47.792;9.628;2023-06-10T08:46:47;9.13;;;6.05;;
18887;SDS011;9576;47.792;9.628;2023-06-10T08:49:50;10.05;;;5.93;;
18887;SDS011;9576;47.792;9.628;2023-06-10T08:52:54;9.43;;;6.05;;
18887;SDS011;9576;47.792;9.628;2023-06-10T08:55:59;9.88;;;5.60;;
18887;SDS011;9576;47.792;9.628;2023-06-10T08:59:05;9.20;;;5.75;;
18887;SDS011;9576;47.792;9.628;2023-06-10T09:02:07;7.75;;;5.47;;
18887;SDS011;9576;47.792;9.628;2023-06-10T09:05:10;9.90;;;6.15;;
18887;SDS011;9576;47.792;9.628;2023-06-10T09:08:13;10.00;;;5.68;;
18887;SDS011;9576;47.792;9.628;2023-06-10T09:11:17;8.70;;;6.15;;
18887;SDS011;9576;47.792;9.628;2023-06-10T09:14:20;11.88;;;5.38;;
18887;SDS011;9576;47.792;9.628;2023-06-10T09:17:23;9.13;;;5.63;;
18887;SDS011;9576;47.792;9.628;2023-06-10T09:20:25;7.70;;;5.60;;
18887;SDS011;9576;47.792;9.628;2023-06-10T09:23:27;8.85;;;6.00;;
18887;SDS011;9576;47.792;9.628;2023-06-10T09:26:29;10.07;;;6.15;;
18887;SDS011;9576;47.792;9.628;2023-06-10T09:29:33;9.93;;;5.43;;
18887;SDS011;9576;47.792;9.628;2023-06-10T09:32:47;8.90;;;6.03;;
18887;SDS011;9576;47.792;9.628;2023-06-10T09:35:49;8.80;;;5.40;;
18887;SDS011;9576;47.792;9.628;2023-06-10T09:38:51;8.43;;;5.57;;
18887;SDS011;9576;47.792;9.628;2023-06-10T09:41:53;7.70;;;5.32;;
18887;SDS011;9576;47.792;9.628;2023-06-10T09:44:56;7.85;;;5.47;;
18887;SDS011;9576;47.792;9.628;2023-06-10T09:47:58;7.82;;;5.38;;
18887;SDS011;9576;47.792;9.628;2023-06-10T09:51:01;11.48;;;4.97;;
18887;SDS011;9576;47.792;9.628;2023-06-10T09:54:03;11.27;;;5.28;;
18887;SDS011;9576;47.792;9.628;2023-06-10T09:57:07;10.45;;;5.40;;
18887;SDS011;9576;47.792;9.628;2023-06-10T10:00:11;12.52;;;4.55;;
18887;SDS011;9576;47.792;9.628;2023-06-10T10:03:21;9.30;;;4.80;;
18887;SDS011;9576;47.792;9.628;2023-06-10T10:06:24;10.35;;;4.97;;
18887;SDS011;9576;47.792;9.628;2023-06-10T10:09:26;13.55;;;5.35;;
18887;SDS011;9576;47.792;9.628;2023-06-10T10:12:28;8.32;;;5.90;;
18887;SDS011;9576;47.792;9.628;2023-06-10T10:15:32;9.82;;;5.47;;
18887;SDS011;9576;47.792;9.628;2023-06-10T10:18:38;8.77;;;5.15;;
18887;SDS011;9576;47.792;9.628;2023-06-10T10:21:43;7.15;;;5.05;;
18887;SDS011;9576;47.792;9.628;2023-06-10T10:24:52;8.82;;;4.47;;
18887;SDS011;9576;47.792;9.628;2023-06-10T10:27:57;9.15;;;5.60;;
18887;SDS011;9576;47.792;9.628;2023-06-10T10:31:06;5.03;;;4.40;;
18887;SDS011;9576;47.792;9.628;2023-06-10T10:34:12;8.90;;;5.22;;
18887;SDS011;9576;47.792;9.628;2023-06-10T10:37:17;14.00;;;5.38;;
18887;SDS011;9576;47.792;9.628;2023-06-10T10:40:19;6.30;;;5.15;;
18887;SDS011;9576;47.792;9.628;2023-06-10T10:43:22;9.68;;;5.68;;
18887;SDS011;9576;47.792;9.628;2023-06-10T10:46:25;9.32;;;4.80;;
18887;SDS011;9576;47.792;9.628;2023-06-10T10:49:27;11.05;;;5.30;;
18887;SDS011;9576;47.792;9.628;2023-06-10T10:52:47;8.40;;;4.97;;
18887;SDS011;9576;47.792;9.628;2023-06-10T10:55:59;7.93;;;5.15;;
18887;SDS011;9576;47.792;9.628;2023-06-10T10:59:06;7.00;;;4.55;;
18887;SDS011;9576;47.792;9.628;2023-06-10T11:02:10;10.15;;;5.57;;
18887;SDS011;9576;47.792;9.628;2023-06-10T11:05:17;12.30;;;5.38;;
18887;SDS011;9576;47.792;9.628;2023-06-10T11:08:46;11.07;;;4.70;;
18887;SDS011;9576;47.792;9.628;2023-06-10T11:11:50;6.57;;;4.50;;
18887;SDS011;9576;47.792;9.628;2023-06-10T11:14:55;15.73;;;4.40;;
18887;SDS011;9576;47.792;9.628;2023-06-10T11:18:12;11.38;;;5.28;;
18887;SDS011;9576;47.792;9.628;2023-06-10T11:21:16;15.20;;;4.50;;
18887;SDS011;9576;47.792;9.628;2023-06-10T11:24:18;5.22;;;4.60;;
18887;SDS011;9576;47.792;9.628;2023-06-10T11:27:20;8.93;;;5.43;;
18887;SDS011;9576;47.792;9.628;2023-06-10T11:30:25;8.35;;;4.63;;
18887;SDS011;9576;47.792;9.628;2023-06-10T11:33:28;8.40;;;4.90;;
18887;SDS011;9576;47.792;9.628;2023-06-10T11:36:31;7.40;;;4.57;;
18887;SDS011;9576;47.792;9.628;2023-06-10T11:39:33;7.97;;;5.20;;
18887;SDS011;9576;47.792;9.628;2023-06-10T11:42:38;8.15;;;5.15;;
18887;SDS011;9576;47.792;9.628;2023-06-10T11:45:41;16.48;;;5.35;;
18887;SDS011;9576;47.792;9.628;2023-06-10T11:48:49;7.00;;;5.05;;
18887;SDS011;9576;47.792;9.628;2023-06-10T11:51:52;6.40;;;4.55;;
18887;SDS011;9576;47.792;9.628;2023-06-10T11:54:54;10.32;;;4.22;;
18887;SDS011;9576;47.792;9.628;2023-06-10T11:57:57;14.95;;;4.70;;
18887;SDS011;9576;47.792;9.628;2023-06-10T12:00:58;8.65;;;4.57;;
18887;SDS011;9576;47.792;9.628;2023-06-10T12:04:04;6.53;;;4.55;;
18887;SDS011;9576;47.792;9.628;2023-06-10T12:07:07;6.20;;;4.78;;
18887;SDS011;9576;47.792;9.628;2023-06-10T12:10:09;8.77;;;4.15;;
18887;SDS011;9576;47.792;9.628;2023-06-10T12:13:11;6.15;;;4.00;;
18887;SDS011;9576;47.792;9.628;2023-06-10T12:16:13;7.38;;;5.03;;
18887;SDS011;9576;47.792;9.628;2023-06-10T12:19:16;5.72;;;3.97;;
18887;SDS011;9576;47.792;9.628;2023-06-10T12:22:18;5.10;;;3.63;;
18887;SDS011;9576;47.792;9.628;2023-06-10T12:25:24;12.23;;;4.55;;
18887;SDS011;9576;47.792;9.628;2023-06-10T12:28:28;5.57;;;3.72;;
18887;SDS011;9576;47.792;9.628;2023-06-10T12:31:29;6.32;;;4.60;;
18887;SDS011;9576;47.792;9.628;2023-06-10T12:34:33;6.43;;;3.58;;
18887;SDS011;9576;47.792;9.628;2023-06-10T12:37:37;7.40;;;4.13;;
18887;SDS011;9576;47.792;9.628;2023-06-10T12:40:39;4.72;;;3.70;;
18887;SDS011;9576;47.792;9.628;2023-06-10T12:43:41;106.80;;;10.65;;
18887;SDS011;9576;47.792;9.628;2023-06-10T12:46:43;5.97;;;3.88;;
18887;SDS011;9576;47.792;9.628;2023-06-10T12:49:46;4.28;;;3.05;;
18887;SDS011;9576;47.792;9.628;2023-06-10T12:52:50;9.25;;;3.28;;
18887;SDS011;9576;47.792;9.628;2023-06-10T12:55:52;6.40;;;3.22;;
18887;SDS011;9576;47.792;9.628;2023-06-10T12:58:54;4.03;;;3.25;;
18887;SDS011;9576;47.792;9.628;2023-06-10T13:01:56;5.25;;;3.42;;
18887;SDS011;9576;47.792;9.628;2023-06-10T13:04:59;5.53;;;3.70;;
18887;SDS011;9576;47.792;9.628;2023-06-10T13:08:02;4.63;;;3.28;;
18887;SDS011;9576;47.792;9.628;2023-06-10T13:11:04;4.32;;;3.50;;
18887;SDS011;9576;47.792;9.628;2023-06-10T13:14:07;11.10;;;3.00;;
18887;SDS011;9576;47.792;9.628;2023-06-10T13:17:10;6.20;;;3.03;;
18887;SDS011;9576;47.792;9.628;2023-06-10T13:20:13;7.30;;;2.92;;
18887;SDS011;9576;47.792;9.628;2023-06-10T13:23:16;6.05;;;3.30;;
18887;SDS011;9576;47.792;9.628;2023-06-10T13:26:18;4.47;;;3.22;;
18887;SDS011;9576;47.792;9.628;2023-06-10T13:29:20;4.82;;;2.60;;
18887;SDS011;9576;47.792;9.628;2023-06-10T13:32:22;5.93;;;2.83;;
18887;SDS011;9576;47.792;9.628;2023-06-10T13:35:25;3.88;;;2.50;;
18887;SDS011;9576;47.792;9.628;2023-06-10T13:38:27;6.88;;;2.90;;
18887;SDS011;9576;47.792;9.628;2023-06-10T13:41:29;27.15;;;3.60;;
18887;SDS011;9576;47.792;9.628;2023-06-10T13:44:31;16.50;;;3.00;;
18887;SDS011;9576;47.792;9.628;2023-06-10T13:47:36;4.53;;;2.60;;
18887;SDS011;9576;47.792;9.628;2023-06-10T13:50:39;4.85;;;2.33;;
18887;SDS011;9576;47.792;9.628;2023-06-10T13:53:45;5.03;;;2.00;;
18887;SDS011;9576;47.792;9.628;2023-06-10T13:56:47;3.45;;;2.63;;
18887;SDS011;9576;47.792;9.628;2023-06-10T13:59:49;2.78;;;2.20;;
18887;SDS011;9576;47.792;9.628;2023-06-10T14:02:51;3.85;;;2.55;;
18887;SDS011;9576;47.792;9.628;2023-06-10T14:05:54;3.70;;;2.60;;
18887;SDS011;9576;47.792;9.628;2023-06-10T14:08:56;4.70;;;2.75;;
18887;SDS011;9576;47.792;9.628;2023-06-10T14:11:58;2.30;;;2.10;;
18887;SDS011;9576;47.792;9.628;2023-06-10T14:15:00;15.63;;;2.85;;
18887;SDS011;9576;47.792;9.628;2023-06-10T14:18:03;3.83;;;2.58;;
18887;SDS011;9576;47.792;9.628;2023-06-10T14:21:07;6.40;;;2.97;;
18887;SDS011;9576;47.792;9.628;2023-06-10T14:24:09;3.30;;;2.40;;
18887;SDS011;9576;47.792;9.628;2023-06-10T14:27:11;4.07;;;2.38;;
18887;SDS011;9576;47.792;9.628;2023-06-10T14:30:13;4.43;;;2.63;;
18887;SDS011;9576;47.792;9.628;2023-06-10T14:33:15;10.32;;;2.42;;
18887;SDS011;9576;47.792;9.628;2023-06-10T14:36:19;3.55;;;2.40;;
18887;SDS011;9576;47.792;9.628;2023-06-10T14:39:21;3.63;;;2.75;;
18887;SDS011;9576;47.792;9.628;2023-06-10T14:42:23;7.22;;;2.13;;
18887;SDS011;9576;47.792;9.628;2023-06-10T14:45:25;4.18;;;2.30;;
18887;SDS011;9576;47.792;9.628;2023-06-10T14:48:27;10.50;;;2.60;;
18887;SDS011;9576;47.792;9.628;2023-06-10T14:51:30;4.95;;;2.70;;
18887;SDS011;9576;47.792;9.628;2023-06-10T14:54:32;10.73;;;2.28;;
18887;SDS011;9576;47.792;9.628;2023-06-10T14:57:34;17.35;;;2.80;;
18887;SDS011;9576;47.792;9.628;2023-06-10T15:00:35;2.53;;;2.33;;
18887;SDS011;9576;47.792;9.628;2023-06-10T15:03:37;6.90;;;2.80;;
18887;SDS011;9576;47.792;9.628;2023-06-10T15:06:41;3.95;;;2.90;;
18887;SDS011;9576;47.792;9.628;2023-06-10T15:09:43;3.35;;;2.63;;
18887;SDS011;9576;47.792;9.628;2023-06-10T15:12:45;7.97;;;2.50;;
18887;SDS011;9576;47.792;9.628;2023-06-10T15:15:47;21.77;;;3.22;;
18887;SDS011;9576;47.792;9.628;2023-06-10T15:18:49;6.22;;;2.58;;
18887;SDS011;9576;47.792;9.628;2023-06-10T15:21:52;14.02;;;6.95;;
18887;SDS011;9576;47.792;9.628;2023-06-10T15:24:54;3.50;;;2.50;;
18887;SDS011;9576;47.792;9.628;2023-06-10T15:27:57;6.28;;;2.85;;
18887;SDS011;9576;47.792;9.628;2023-06-10T15:30:59;3.38;;;2.25;;
18887;SDS011;9576;47.792;9.628;2023-06-10T15:34:01;4.03;;;3.05;;
18887;SDS011;9576;47.792;9.628;2023-06-10T15:37:05;29.65;;;4.25;;
18887;SDS011;9576;47.792;9.628;2023-06-10T15:40:07;10.43;;;2.43;;
18887;SDS011;9576;47.792;9.628;2023-06-10T15:43:09;30.50;;;3.38;;
18887;SDS011;9576;47.792;9.628;2023-06-10T15:46:13;5.00;;;2.90;;
18887;SDS011;9576;47.792;9.628;2023-06-10T15:49:15;18.55;;;3.00;;
18887;SDS011;9576;47.792;9.628;2023-06-10T15:52:18;8.35;;;2.97;;
18887;SDS011;9576;47.792;9.628;2023-06-10T15:55:20;4.37;;;2.67;;
18887;SDS011;9576;47.792;9.628;2023-06-10T15:58:22;4.40;;;2.75;;
18887;SDS011;9576;47.792;9.628;2023-06-10T16:01:24;15.65;;;3.45;;
18887;SDS011;9576;47.792;9.628;2023-06-10T16:04:26;26.13;;;3.38;;
18887;SDS011;9576;47.792;9.628;2023-06-10T16:07:29;8.68;;;3.58;;
18887;SDS011;9576;47.792;9.628;2023-06-10T16:10:31;12.32;;;2.88;;
18887;SDS011;9576;47.792;9.628;2023-06-10T16:13:33;10.65;;;3.22;;
18887;SDS011;9576;47.792;9.628;2023-06-10T16:16:35;7.15;;;3.17;;
18887;SDS011;9576;47.792;9.628;2023-06-10T16:19:36;11.95;;;3.63;;
18887;SDS011;9576;47.792;9.628;2023-06-10T16:22:40;5.25;;;3.13;;
18887;SDS011;9576;47.792;9.628;2023-06-10T16:25:42;8.20;;;3.90;;
18887;SDS011;9576;47.792;9.628;2023-06-10T16:28:43;13.02;;;3.78;;
18887;SDS011;9576;47.792;9.628;2023-06-10T16:31:45;8.55;;;3.30;;
18887;SDS011;9576;47.792;9.628;2023-06-10T16:34:49;14.90;;;5.07;;
18887;SDS011;9576;47.792;9.628;2023-06-10T16:37:52;6.45;;;3.78;;
18887;SDS011;9576;47.792;9.628;2023-06-10T16:40:54;9.57;;;3.53;;
18887;SDS011;9576;47.792;9.628;2023-06-10T16:43:57;4.00;;;3.20;;
18887;SDS011;9576;47.792;9.628;2023-06-10T16:46:59;47.50;;;4.25;;
18887;SDS011;9576;47.792;9.628;2023-06-10T16:50:01;9.10;;;4.03;;
18887;SDS011;9576;47.792;9.628;2023-06-10T16:53:04;8.75;;;4.13;;
18887;SDS011;9576;47.792;9.628;2023-06-10T16:56:06;8.27;;;3.33;;
18887;SDS011;9576;47.792;9.628;2023-06-10T16:59:08;7.95;;;3.25;;
18887;SDS011;9576;47.792;9.628;2023-06-10T17:02:10;10.10;;;3.70;;
18887;SDS011;9576;47.792;9.628;2023-06-10T17:05:12;5.45;;;3.53;;
18887;SDS011;9576;47.792;9.628;2023-06-10T17:08:16;6.60;;;3.25;;
18887;SDS011;9576;47.792;9.628;2023-06-10T17:11:17;17.70;;;4.13;;
18887;SDS011;9576;47.792;9.628;2023-06-10T17:14:21;9.68;;;3.47;;
18887;SDS011;9576;47.792;9.628;2023-06-10T17:20:27;7.13;;;3.63;;
18887;SDS011;9576;47.792;9.628;2023-06-10T17:23:32;6.53;;;4.43;;
18887;SDS011;9576;47.792;9.628;2023-06-10T17:26:34;5.77;;;3.73;;
18887;SDS011;9576;47.792;9.628;2023-06-10T17:29:36;4.72;;;3.83;;
18887;SDS011;9576;47.792;9.628;2023-06-10T17:32:39;10.35;;;3.90;;
18887;SDS011;9576;47.792;9.628;2023-06-10T17:35:41;6.90;;;4.28;;
18887;SDS011;9576;47.792;9.628;2023-06-10T17:38:44;5.07;;;3.70;;
18887;SDS011;9576;47.792;9.628;2023-06-10T17:41:46;8.48;;;4.63;;
18887;SDS011;9576;47.792;9.628;2023-06-10T17:44:48;10.35;;;4.22;;
18887;SDS011;9576;47.792;9.628;2023-06-10T17:47:50;11.02;;;3.88;;
18887;SDS011;9576;47.792;9.628;2023-06-10T17:50:52;5.85;;;4.15;;
18887;SDS011;9576;47.792;9.628;2023-06-10T17:53:55;4.60;;;3.92;;
18887;SDS011;9576;47.792;9.628;2023-06-10T17:56:57;10.70;;;4.35;;
18887;SDS011;9576;47.792;9.628;2023-06-10T17:59:59;6.00;;;4.03;;
18887;SDS011;9576;47.792;9.628;2023-06-10T18:03:01;6.03;;;4.10;;
18887;SDS011;9576;47.792;9.628;2023-06-10T18:06:04;10.45;;;4.60;;
18887;SDS011;9576;47.792;9.628;2023-06-10T18:09:07;6.25;;;4.32;;
18887;SDS011;9576;47.792;9.628;2023-06-10T18:12:10;12.63;;;4.97;;
18887;SDS011;9576;47.792;9.628;2023-06-10T18:15:12;8.52;;;4.88;;
18887;SDS011;9576;47.792;9.628;2023-06-10T18:18:14;5.43;;;3.90;;
18887;SDS011;9576;47.792;9.628;2023-06-10T18:21:16;5.90;;;4.25;;
18887;SDS011;9576;47.792;9.628;2023-06-10T18:24:19;6.80;;;4.55;;
18887;SDS011;9576;47.792;9.628;2023-06-10T18:27:21;10.55;;;4.70;;
18887;SDS011;9576;47.792;9.628;2023-06-10T18:30:23;7.88;;;4.05;;
18887;SDS011;9576;47.792;9.628;2023-06-10T18:33:25;14.45;;;5.38;;